TimeEDT,TemperatureF,Dew PointF,Humidity,Sea Level PressureIn,VisibilityMPH,Wind Direction,Wind SpeedMPH,Gust SpeedMPH,PrecipitationIn,Events,Conditions,WindDirDegrees,DateUTC
12:54 AM,54.0,53.1,97,29.98,10.0,Calm,Calm,-,N/A,,Clear,0,2013-09-25 04:54:00
1:54 AM,53.1,52.0,96,29.97,10.0,Calm,Calm,-,N/A,,Clear,0,2013-09-25 05:54:00
2:54 AM,53.1,52.0,96,29.96,10.0,SSW,3.5,-,N/A,,Clear,210,2013-09-25 06:54:00
3:54 AM,52.0,52.0,100,29.96,10.0,SW,3.5,-,N/A,,Clear,220,2013-09-25 07:54:00
4:19 AM,51.8,51.8,100,29.95,1.8,Calm,Calm,-,N/A,,Clear,0,2013-09-25 08:19:00
4:29 AM,53.6,53.6,100,29.95,4.0,Calm,Calm,-,N/A,,Clear,0,2013-09-25 08:29:00
4:54 AM,50.0,48.9,96,29.95,10.0,Calm,Calm,-,N/A,,Clear,0,2013-09-25 08:54:00
5:17 AM,48.2,48.2,100,29.95,1.8,Calm,Calm,-,N/A,,Clear,0,2013-09-25 09:17:00
5:26 AM,50.0,48.2,94,29.95,0.5,Calm,Calm,-,N/A,Fog,Fog,0,2013-09-25 09:26:00
5:41 AM,50.0,50.0,100,29.95,2.0,Calm,Calm,-,N/A,,Clear,0,2013-09-25 09:41:00
5:54 AM,48.9,48.9,100,29.95,2.5,Calm,Calm,-,N/A,,Clear,0,2013-09-25 09:54:00
6:12 AM,48.2,48.2,100,29.95,0.8,WNW,3.5,-,N/A,,Clear,290,2013-09-25 10:12:00
6:54 AM,52.0,51.1,97,29.95,0.2,Calm,Calm,-,N/A,Fog,Fog,0,2013-09-25 10:54:00
7:03 AM,51.8,51.8,100,29.95,10.0,Calm,Calm,-,N/A,,Clear,0,2013-09-25 11:03:00
7:54 AM,55.9,55.0,97,29.95,10.0,Calm,Calm,-,N/A,,Clear,0,2013-09-25 11:54:00
8:54 AM,63.0,60.1,90,29.95,10.0,Calm,Calm,-,N/A,,Clear,0,2013-09-25 12:54:00
9:54 AM,66.0,57.9,75,29.96,10.0,WNW,3.5,-,N/A,,Clear,300,2013-09-25 13:54:00
10:54 AM,70.0,55.9,61,29.96,10.0,Variable,3.5,-,N/A,,Scattered Clouds,0,2013-09-25 14:54:00
11:54 AM,70.0,54.0,57,29.96,10.0,North,3.5,-,N/A,,Clear,10,2013-09-25 15:54:00
12:54 PM,72.0,54.0,53,29.94,10.0,NNE,3.5,-,N/A,,Clear,20,2013-09-25 16:54:00
1:54 PM,72.0,53.1,51,29.92,10.0,North,3.5,-,N/A,,Clear,350,2013-09-25 17:54:00
2:54 PM,72.0,52.0,49,29.91,10.0,NE,3.5,-,N/A,,Clear,40,2013-09-25 18:54:00
3:54 PM,75.0,53.1,46,29.89,10.0,Variable,4.6,-,N/A,,Clear,0,2013-09-25 19:54:00
4:54 PM,73.0,55.0,53,29.88,10.0,SE,5.8,-,N/A,,Clear,130,2013-09-25 20:54:00
5:54 PM,70.0,57.0,63,29.89,10.0,SE,5.8,-,N/A,,Clear,140,2013-09-25 21:54:00
6:54 PM,66.0,55.9,70,29.89,10.0,Calm,Calm,-,N/A,,Clear,0,2013-09-25 22:54:00
7:54 PM,57.9,55.0,90,29.90,10.0,Calm,Calm,-,N/A,,Clear,0,2013-09-25 23:54:00
8:54 PM,64.0,57.0,78,29.91,10.0,East,3.5,-,N/A,,Clear,100,2013-09-26 00:54:00
9:54 PM,61.0,55.9,83,29.91,10.0,Calm,Calm,-,N/A,,Clear,0,2013-09-26 01:54:00
10:54 PM,59.0,57.0,93,29.90,10.0,Calm,Calm,-,N/A,,Clear,0,2013-09-26 02:54:00
11:54 PM,60.1,55.9,86,29.90,10.0,East,3.5,-,N/A,,Clear,80,2013-09-26 03:54:00